createdAt,value
2022-12-26T00:09:14.058Z,10.43
2022-12-26T00:19:15.344Z,10.41
2022-12-26T00:29:16.583Z,10.48
2022-12-26T00:39:18.045Z,10.62
2022-12-26T00:49:19.283Z,10.65
2022-12-26T00:59:20.560Z,10.62
2022-12-26T01:09:21.845Z,10.73
2022-12-26T01:19:23.093Z,10.96
2022-12-26T01:29:24.366Z,10.88
2022-12-26T01:39:25.739Z,11.11
2022-12-26T01:49:27.030Z,11.26
2022-12-26T01:59:28.336Z,11.15
2022-12-26T02:09:29.577Z,11.28
2022-12-26T02:19:30.799Z,11.27
2022-12-26T02:29:32.032Z,11.35
2022-12-26T02:39:45.274Z,11.22
2022-12-26T02:50:23.419Z,11.25
2022-12-26T03:00:43.393Z,11.28
2022-12-26T03:11:03.170Z,11.27
2022-12-26T03:21:04.415Z,11.14
2022-12-26T03:31:05.730Z,11.00
2022-12-26T03:41:25.730Z,11.01
2022-12-26T03:51:45.621Z,11.09
2022-12-26T04:02:05.746Z,11.03
2022-12-26T04:12:26.114Z,10.96
2022-12-26T04:22:45.895Z,10.94
2022-12-26T04:33:06.185Z,11.03
2022-12-26T04:43:50.443Z,10.99
2022-12-26T04:53:47.418Z,11.14
2022-12-26T05:04:07.350Z,11.27
2022-12-26T05:14:08.601Z,10.93
2022-12-26T05:24:28.407Z,10.84
2022-12-26T05:34:29.677Z,10.99
2022-12-26T05:44:31.202Z,10.73
2022-12-26T05:54:32.434Z,10.70
2022-12-26T06:04:34.692Z,10.97
2022-12-26T06:14:35.928Z,10.89
2022-12-26T06:24:37.176Z,10.96
2022-12-26T06:34:38.393Z,10.99
2022-12-26T06:44:39.661Z,10.83
2022-12-26T06:54:40.905Z,10.56
2022-12-26T07:04:42.191Z,10.42
2022-12-26T07:14:43.481Z,10.55
2022-12-26T07:24:44.750Z,10.63
2022-12-26T07:34:46.066Z,10.58
2022-12-26T07:44:47.336Z,10.45
2022-12-26T07:54:48.564Z,10.53
2022-12-26T08:04:49.830Z,10.43
2022-12-26T08:14:51.072Z,10.42
2022-12-26T08:24:52.307Z,10.35
2022-12-26T08:34:54.660Z,10.37
2022-12-26T08:44:55.886Z,10.48
2022-12-26T08:54:57.614Z,10.47
2022-12-26T09:04:58.877Z,10.45
2022-12-26T09:15:00.139Z,10.47
2022-12-26T09:25:01.560Z,10.52
2022-12-26T09:35:02.839Z,10.49
2022-12-26T09:45:04.106Z,10.40
2022-12-26T09:55:05.345Z,10.45
2022-12-26T10:05:06.644Z,10.40
2022-12-26T10:15:07.960Z,10.51
2022-12-26T10:25:09.335Z,10.58
2022-12-26T10:35:10.592Z,10.67
2022-12-26T10:45:11.850Z,10.66
2022-12-26T10:55:29.271Z,10.93
2022-12-26T11:15:54.116Z,10.78
2022-12-26T11:26:02.036Z,10.79
2022-12-26T11:36:03.279Z,10.96
2022-12-26T11:46:04.530Z,10.90
2022-12-26T11:56:05.971Z,10.80
2022-12-26T12:06:07.246Z,10.88
2022-12-26T12:16:08.535Z,11.05
2022-12-26T12:26:09.793Z,11.17
2022-12-26T12:36:11.071Z,10.98
2022-12-26T12:46:13.051Z,10.66
2022-12-26T12:56:14.431Z,10.60
2022-12-26T13:06:15.688Z,10.80
2022-12-26T13:16:16.954Z,10.72
2022-12-26T13:26:18.236Z,10.74
2022-12-26T13:36:19.473Z,10.76
2022-12-26T13:46:20.743Z,10.73
2022-12-26T13:56:21.981Z,10.77
2022-12-26T14:06:23.266Z,10.73
2022-12-26T14:16:24.701Z,10.65
2022-12-26T14:26:26.037Z,10.55
2022-12-26T14:36:27.292Z,10.52
2022-12-26T14:46:28.555Z,10.50
2022-12-26T14:56:29.873Z,10.36
2022-12-26T15:06:31.128Z,10.16
2022-12-26T15:16:32.368Z,9.98
2022-12-26T15:26:33.839Z,9.92
2022-12-26T15:36:35.064Z,9.97
2022-12-26T15:46:36.370Z,9.86
2022-12-26T15:56:37.630Z,9.91
2022-12-26T16:06:38.840Z,9.93
2022-12-26T16:16:40.114Z,10.03
2022-12-26T16:26:41.552Z,10.01
2022-12-26T16:36:42.767Z,9.97
2022-12-26T16:46:44.146Z,9.98
2022-12-26T16:56:45.500Z,9.95
2022-12-26T17:06:48.874Z,9.92
2022-12-26T17:16:50.218Z,9.89
2022-12-26T17:26:51.527Z,9.35
2022-12-26T17:37:18.433Z,9.05
2022-12-26T17:47:13.957Z,8.85
2022-12-26T17:57:15.187Z,8.80
2022-12-26T18:07:16.419Z,8.92
2022-12-26T18:17:18.876Z,9.12
2022-12-26T18:27:20.139Z,9.00
2022-12-26T18:37:21.471Z,8.96
2022-12-26T18:47:22.702Z,8.83
2022-12-26T18:57:23.976Z,8.85
2022-12-26T19:07:25.259Z,8.57
2022-12-26T19:17:26.502Z,8.46
2022-12-26T19:27:28.290Z,8.35
2022-12-26T19:37:29.536Z,8.30
2022-12-26T19:47:30.808Z,8.11
2022-12-26T20:07:50.463Z,7.86
2022-12-26T20:17:52.732Z,8.04
2022-12-26T20:27:54.065Z,8.06
2022-12-26T20:37:55.389Z,7.82
2022-12-26T20:47:56.628Z,7.76
2022-12-26T20:57:57.914Z,7.68
2022-12-26T21:07:59.173Z,7.53
2022-12-26T21:18:00.510Z,7.59
2022-12-26T21:28:01.856Z,7.66
2022-12-26T21:38:03.101Z,7.65
2022-12-26T21:48:04.419Z,7.80
2022-12-26T21:58:07.625Z,7.77
2022-12-26T22:08:08.938Z,7.63
2022-12-26T22:18:10.237Z,7.59
2022-12-26T22:28:11.616Z,7.50
2022-12-26T22:38:12.905Z,7.44
2022-12-26T22:48:14.190Z,7.32
2022-12-26T22:58:15.444Z,7.27
2022-12-26T23:08:16.716Z,6.90
2022-12-26T23:18:36.944Z,6.55
2022-12-26T23:28:56.838Z,6.22
2022-12-26T23:38:58.072Z,6.03
2022-12-26T23:48:59.329Z,5.76
2022-12-26T23:59:00.652Z,5.55
